sensor_id;sensor_type;location;lat;lon;timestamp;temperature;humidity
19279;DHT22;9773;47.062;15.446;2023-05-23T00:00:16;16.30;99.90
19279;DHT22;9773;47.062;15.446;2023-05-23T00:02:43;16.20;99.90
19279;DHT22;9773;47.062;15.446;2023-05-23T00:05:14;16.20;99.90
19279;DHT22;9773;47.062;15.446;2023-05-23T00:07:46;16.30;99.90
19279;DHT22;9773;47.062;15.446;2023-05-23T00:10:15;16.40;99.90
19279;DHT22;9773;47.062;15.446;2023-05-23T00:12:41;16.40;99.90
19279;DHT22;9773;47.062;15.446;2023-05-23T00:15:08;16.40;99.90
19279;DHT22;9773;47.062;15.446;2023-05-23T00:17:35;16.30;99.90
19279;DHT22;9773;47.062;15.446;2023-05-23T00:20:03;16.70;99.90
19279;DHT22;9773;47.062;15.446;2023-05-23T00:22:29;17.00;99.90
19279;DHT22;9773;47.062;15.446;2023-05-23T00:24:55;16.10;99.90
19279;DHT22;9773;47.062;15.446;2023-05-23T00:27:23;16.60;99.90
19279;DHT22;9773;47.062;15.446;2023-05-23T00:29:49;16.00;99.90
19279;DHT22;9773;47.062;15.446;2023-05-23T00:32:15;15.90;99.90
19279;DHT22;9773;47.062;15.446;2023-05-23T00:34:40;15.80;99.90
19279;DHT22;9773;47.062;15.446;2023-05-23T00:37:06;15.80;99.90
19279;DHT22;9773;47.062;15.446;2023-05-23T00:39:32;15.80;99.90
19279;DHT22;9773;47.062;15.446;2023-05-23T00:41:58;15.80;99.90
19279;DHT22;9773;47.062;15.446;2023-05-23T00:44:28;15.80;99.90
19279;DHT22;9773;47.062;15.446;2023-05-23T00:46:56;15.80;99.90
19279;DHT22;9773;47.062;15.446;2023-05-23T00:49:23;15.90;99.90
19279;DHT22;9773;47.062;15.446;2023-05-23T00:51:50;16.00;99.90
19279;DHT22;9773;47.062;15.446;2023-05-23T00:54:27;16.40;99.90
19279;DHT22;9773;47.062;15.446;2023-05-23T00:56:55;15.90;99.90
19279;DHT22;9773;47.062;15.446;2023-05-23T00:59:23;15.90;99.90
19279;DHT22;9773;47.062;15.446;2023-05-23T01:01:50;15.00;99.90
19279;DHT22;9773;47.062;15.446;2023-05-23T01:04:23;15.90;99.90
19279;DHT22;9773;47.062;15.446;2023-05-23T01:06:55;16.00;99.90
19279;DHT22;9773;47.062;15.446;2023-05-23T01:09:29;15.90;99.90
19279;DHT22;9773;47.062;15.446;2023-05-23T01:13:03;16.80;99.90
19279;DHT22;9773;47.062;15.446;2023-05-23T01:21:17;15.70;99.90
19279;DHT22;9773;47.062;15.446;2023-05-23T01:30:04;15.40;99.90
19279;DHT22;9773;47.062;15.446;2023-05-23T01:32:34;15.80;99.90
19279;DHT22;9773;47.062;15.446;2023-05-23T01:35:00;16.00;99.90
19279;DHT22;9773;47.062;15.446;2023-05-23T01:37:28;15.30;99.90
19279;DHT22;9773;47.062;15.446;2023-05-23T01:39:54;15.80;99.90
19279;DHT22;9773;47.062;15.446;2023-05-23T01:42:21;15.70;99.90
19279;DHT22;9773;47.062;15.446;2023-05-23T01:44:47;15.60;99.90
19279;DHT22;9773;47.062;15.446;2023-05-23T01:47:14;15.60;99.90
19279;DHT22;9773;47.062;15.446;2023-05-23T01:49:41;15.50;99.90
19279;DHT22;9773;47.062;15.446;2023-05-23T01:52:09;15.50;99.90
19279;DHT22;9773;47.062;15.446;2023-05-23T01:54:38;15.40;99.90
19279;DHT22;9773;47.062;15.446;2023-05-23T01:57:07;15.40;99.90
19279;DHT22;9773;47.062;15.446;2023-05-23T01:59:33;15.40;99.90
19279;DHT22;9773;47.062;15.446;2023-05-23T02:01:58;15.50;99.90
19279;DHT22;9773;47.062;15.446;2023-05-23T02:04:24;15.50;99.90
19279;DHT22;9773;47.062;15.446;2023-05-23T02:06:52;15.50;99.90
19279;DHT22;9773;47.062;15.446;2023-05-23T02:09:19;15.40;99.90
19279;DHT22;9773;47.062;15.446;2023-05-23T02:11:45;14.70;99.90
19279;DHT22;9773;47.062;15.446;2023-05-23T02:14:11;15.40;99.90
19279;DHT22;9773;47.062;15.446;2023-05-23T02:16:37;15.40;99.90
19279;DHT22;9773;47.062;15.446;2023-05-23T02:19:03;15.30;99.90
19279;DHT22;9773;47.062;15.446;2023-05-23T02:21:29;15.20;99.90
19279;DHT22;9773;47.062;15.446;2023-05-23T02:23:56;15.30;99.90
19279;DHT22;9773;47.062;15.446;2023-05-23T02:26:22;15.30;99.90
19279;DHT22;9773;47.062;15.446;2023-05-23T02:28:47;15.20;99.90
19279;DHT22;9773;47.062;15.446;2023-05-23T02:31:13;15.10;99.90
19279;DHT22;9773;47.062;15.446;2023-05-23T02:33:39;15.10;99.90
19279;DHT22;9773;47.062;15.446;2023-05-23T02:36:06;15.10;99.90
19279;DHT22;9773;47.062;15.446;2023-05-23T02:38:32;15.10;99.90
19279;DHT22;9773;47.062;15.446;2023-05-23T02:40:58;15.10;99.90
19279;DHT22;9773;47.062;15.446;2023-05-23T02:43:25;15.10;99.90
19279;DHT22;9773;47.062;15.446;2023-05-23T02:45:50;15.10;99.90
19279;DHT22;9773;47.062;15.446;2023-05-23T02:48:18;15.10;99.90
19279;DHT22;9773;47.062;15.446;2023-05-23T02:50:43;15.10;99.90
19279;DHT22;9773;47.062;15.446;2023-05-23T02:53:09;15.10;99.90
19279;DHT22;9773;47.062;15.446;2023-05-23T02:55:35;15.10;99.90
19279;DHT22;9773;47.062;15.446;2023-05-23T02:58:01;15.10;99.90
19279;DHT22;9773;47.062;15.446;2023-05-23T03:00:33;15.10;99.90
19279;DHT22;9773;47.062;15.446;2023-05-23T03:02:59;15.30;99.90
19279;DHT22;9773;47.062;15.446;2023-05-23T03:05:24;15.00;99.90
19279;DHT22;9773;47.062;15.446;2023-05-23T03:07:52;14.90;99.90
19279;DHT22;9773;47.062;15.446;2023-05-23T03:10:20;14.80;99.90
19279;DHT22;9773;47.062;15.446;2023-05-23T03:12:46;14.90;99.90
19279;DHT22;9773;47.062;15.446;2023-05-23T03:15:12;14.90;99.90
19279;DHT22;9773;47.062;15.446;2023-05-23T03:17:38;14.80;99.90
19279;DHT22;9773;47.062;15.446;2023-05-23T03:20:04;14.80;99.90
19279;DHT22;9773;47.062;15.446;2023-05-23T03:22:34;14.80;99.90
19279;DHT22;9773;47.062;15.446;2023-05-23T03:25:00;15.30;99.90
19279;DHT22;9773;47.062;15.446;2023-05-23T03:27:26;14.80;99.90
19279;DHT22;9773;47.062;15.446;2023-05-23T03:29:51;14.90;99.90
19279;DHT22;9773;47.062;15.446;2023-05-23T03:32:17;14.90;99.90
19279;DHT22;9773;47.062;15.446;2023-05-23T03:34:43;14.90;99.90
19279;DHT22;9773;47.062;15.446;2023-05-23T03:37:09;15.40;99.90
19279;DHT22;9773;47.062;15.446;2023-05-23T03:39:35;15.00;99.90
19279;DHT22;9773;47.062;15.446;2023-05-23T03:42:02;15.10;99.90
19279;DHT22;9773;47.062;15.446;2023-05-23T03:44:29;15.10;99.90
19279;DHT22;9773;47.062;15.446;2023-05-23T03:46:55;15.10;99.90
19279;DHT22;9773;47.062;15.446;2023-05-23T03:49:21;15.10;99.90
19279;DHT22;9773;47.062;15.446;2023-05-23T03:51:46;15.10;99.90
19279;DHT22;9773;47.062;15.446;2023-05-23T03:54:12;15.20;99.90
19279;DHT22;9773;47.062;15.446;2023-05-23T03:56:38;15.10;99.90
19279;DHT22;9773;47.062;15.446;2023-05-23T03:59:06;14.20;99.90
19279;DHT22;9773;47.062;15.446;2023-05-23T04:01:31;15.10;99.90
19279;DHT22;9773;47.062;15.446;2023-05-23T04:03:57;15.10;99.90
19279;DHT22;9773;47.062;15.446;2023-05-23T04:06:25;15.20;99.90
19279;DHT22;9773;47.062;15.446;2023-05-23T04:08:50;15.10;99.90
19279;DHT22;9773;47.062;15.446;2023-05-23T04:11:16;15.20;99.90
19279;DHT22;9773;47.062;15.446;2023-05-23T04:13:42;15.20;99.90
19279;DHT22;9773;47.062;15.446;2023-05-23T04:16:10;15.20;99.90
19279;DHT22;9773;47.062;15.446;2023-05-23T04:18:36;15.40;99.90
19279;DHT22;9773;47.062;15.446;2023-05-23T04:21:03;15.30;99.90
19279;DHT22;9773;47.062;15.446;2023-05-23T04:23:29;15.20;99.90
19279;DHT22;9773;47.062;15.446;2023-05-23T04:25:55;15.40;99.90
19279;DHT22;9773;47.062;15.446;2023-05-23T04:28:23;15.50;99.90
19279;DHT22;9773;47.062;15.446;2023-05-23T04:30:49;15.40;99.90
19279;DHT22;9773;47.062;15.446;2023-05-23T04:33:16;15.00;99.90
19279;DHT22;9773;47.062;15.446;2023-05-23T04:35:44;15.40;99.90
19279;DHT22;9773;47.062;15.446;2023-05-23T04:38:12;15.40;99.90
19279;DHT22;9773;47.062;15.446;2023-05-23T04:40:38;16.00;99.90
19279;DHT22;9773;47.062;15.446;2023-05-23T04:43:04;15.50;99.90
19279;DHT22;9773;47.062;15.446;2023-05-23T04:45:31;16.00;99.90
19279;DHT22;9773;47.062;15.446;2023-05-23T04:47:58;15.60;99.90
19279;DHT22;9773;47.062;15.446;2023-05-23T04:50:24;15.70;99.90
19279;DHT22;9773;47.062;15.446;2023-05-23T04:52:50;15.70;99.90
19279;DHT22;9773;47.062;15.446;2023-05-23T04:55:16;15.80;99.90
19279;DHT22;9773;47.062;15.446;2023-05-23T04:57:41;15.80;99.90
19279;DHT22;9773;47.062;15.446;2023-05-23T05:00:08;15.80;99.90
19279;DHT22;9773;47.062;15.446;2023-05-23T05:02:38;15.90;99.90
19279;DHT22;9773;47.062;15.446;2023-05-23T05:05:04;16.00;99.90
19279;DHT22;9773;47.062;15.446;2023-05-23T05:07:30;16.10;99.90
19279;DHT22;9773;47.062;15.446;2023-05-23T05:09:56;16.20;99.90
19279;DHT22;9773;47.062;15.446;2023-05-23T05:12:22;16.80;99.90
19279;DHT22;9773;47.062;15.446;2023-05-23T05:14:48;16.40;99.90
19279;DHT22;9773;47.062;15.446;2023-05-23T05:17:14;16.50;99.90
19279;DHT22;9773;47.062;15.446;2023-05-23T05:19:40;16.60;99.90
19279;DHT22;9773;47.062;15.446;2023-05-23T05:22:06;16.70;99.90
19279;DHT22;9773;47.062;15.446;2023-05-23T05:24:32;16.80;99.90
19279;DHT22;9773;47.062;15.446;2023-05-23T05:26:58;16.80;99.90
19279;DHT22;9773;47.062;15.446;2023-05-23T05:29:24;17.00;99.90
19279;DHT22;9773;47.062;15.446;2023-05-23T05:31:51;17.20;99.90
19279;DHT22;9773;47.062;15.446;2023-05-23T05:34:18;17.20;99.90
19279;DHT22;9773;47.062;15.446;2023-05-23T05:36:44;17.30;99.90
19279;DHT22;9773;47.062;15.446;2023-05-23T05:39:13;17.40;99.90
19279;DHT22;9773;47.062;15.446;2023-05-23T05:41:39;17.50;99.90
19279;DHT22;9773;47.062;15.446;2023-05-23T05:44:06;17.60;99.90
19279;DHT22;9773;47.062;15.446;2023-05-23T05:46:32;17.70;99.90
19279;DHT22;9773;47.062;15.446;2023-05-23T05:48:57;17.80;99.90
19279;DHT22;9773;47.062;15.446;2023-05-23T05:51:23;17.80;99.90
19279;DHT22;9773;47.062;15.446;2023-05-23T05:53:49;17.90;99.90
19279;DHT22;9773;47.062;15.446;2023-05-23T05:56:15;16.70;99.90
19279;DHT22;9773;47.062;15.446;2023-05-23T05:58:41;18.20;99.90
19279;DHT22;9773;47.062;15.446;2023-05-23T06:01:06;18.30;99.90
19279;DHT22;9773;47.062;15.446;2023-05-23T06:03:34;18.30;99.90
19279;DHT22;9773;47.062;15.446;2023-05-23T06:05:59;18.20;99.90
19279;DHT22;9773;47.062;15.446;2023-05-23T06:08:25;18.30;99.90
19279;DHT22;9773;47.062;15.446;2023-05-23T06:10:51;18.30;99.90
19279;DHT22;9773;47.062;15.446;2023-05-23T06:13:17;18.40;99.90
19279;DHT22;9773;47.062;15.446;2023-05-23T06:15:43;18.50;99.90
19279;DHT22;9773;47.062;15.446;2023-05-23T06:18:09;18.60;99.90
19279;DHT22;9773;47.062;15.446;2023-05-23T06:20:35;18.70;99.90
19279;DHT22;9773;47.062;15.446;2023-05-23T06:23:01;18.70;99.90
19279;DHT22;9773;47.062;15.446;2023-05-23T06:25:30;18.70;99.90
19279;DHT22;9773;47.062;15.446;2023-05-23T06:27:56;18.80;99.90
19279;DHT22;9773;47.062;15.446;2023-05-23T06:30:25;18.90;99.90
19279;DHT22;9773;47.062;15.446;2023-05-23T06:32:54;19.00;99.90
19279;DHT22;9773;47.062;15.446;2023-05-23T06:35:20;19.20;99.90
19279;DHT22;9773;47.062;15.446;2023-05-23T06:37:48;19.20;99.90
19279;DHT22;9773;47.062;15.446;2023-05-23T06:40:14;19.40;99.90
19279;DHT22;9773;47.062;15.446;2023-05-23T06:42:40;19.50;99.90
19279;DHT22;9773;47.062;15.446;2023-05-23T06:45:07;20.00;99.90
19279;DHT22;9773;47.062;15.446;2023-05-23T06:47:33;17.60;99.90
19279;DHT22;9773;47.062;15.446;2023-05-23T06:49:59;19.70;99.90
19279;DHT22;9773;47.062;15.446;2023-05-23T06:52:24;19.90;99.90
19279;DHT22;9773;47.062;15.446;2023-05-23T06:54:50;20.10;99.90
19279;DHT22;9773;47.062;15.446;2023-05-23T06:57:16;20.20;99.90
19279;DHT22;9773;47.062;15.446;2023-05-23T06:59:41;20.40;99.90
19279;DHT22;9773;47.062;15.446;2023-05-23T07:02:07;20.50;99.90
19279;DHT22;9773;47.062;15.446;2023-05-23T07:04:33;20.60;99.90
19279;DHT22;9773;47.062;15.446;2023-05-23T07:06:59;20.80;99.90
19279;DHT22;9773;47.062;15.446;2023-05-23T07:09:24;20.80;99.90
19279;DHT22;9773;47.062;15.446;2023-05-23T07:11:50;20.90;99.90
19279;DHT22;9773;47.062;15.446;2023-05-23T07:14:16;21.00;99.90
19279;DHT22;9773;47.062;15.446;2023-05-23T07:16:42;21.30;99.90
19279;DHT22;9773;47.062;15.446;2023-05-23T07:19:07;21.50;99.90
19279;DHT22;9773;47.062;15.446;2023-05-23T07:21:33;21.60;99.90
19279;DHT22;9773;47.062;15.446;2023-05-23T07:23:59;21.70;99.90
19279;DHT22;9773;47.062;15.446;2023-05-23T07:26:25;21.80;99.90
19279;DHT22;9773;47.062;15.446;2023-05-23T07:28:51;21.90;99.90
19279;DHT22;9773;47.062;15.446;2023-05-23T07:31:17;21.90;99.90
19279;DHT22;9773;47.062;15.446;2023-05-23T07:33:43;22.00;99.90
19279;DHT22;9773;47.062;15.446;2023-05-23T07:36:10;21.90;99.90
19279;DHT22;9773;47.062;15.446;2023-05-23T07:38:36;21.90;99.90
19279;DHT22;9773;47.062;15.446;2023-05-23T07:41:02;22.60;99.90
19279;DHT22;9773;47.062;15.446;2023-05-23T07:43:28;22.10;99.90
19279;DHT22;9773;47.062;15.446;2023-05-23T07:45:54;22.20;99.90
19279;DHT22;9773;47.062;15.446;2023-05-23T07:48:19;22.20;99.90
19279;DHT22;9773;47.062;15.446;2023-05-23T07:50:45;22.30;99.90
19279;DHT22;9773;47.062;15.446;2023-05-23T07:53:11;22.40;99.90
19279;DHT22;9773;47.062;15.446;2023-05-23T07:55:39;22.40;99.90
19279;DHT22;9773;47.062;15.446;2023-05-23T07:58:05;22.20;99.90
19279;DHT22;9773;47.062;15.446;2023-05-23T08:00:31;22.20;99.90
19279;DHT22;9773;47.062;15.446;2023-05-23T08:02:58;22.30;99.90
19279;DHT22;9773;47.062;15.446;2023-05-23T08:05:23;22.40;99.90
19279;DHT22;9773;47.062;15.446;2023-05-23T08:07:49;22.50;99.90
19279;DHT22;9773;47.062;15.446;2023-05-23T08:10:15;22.80;99.90
19279;DHT22;9773;47.062;15.446;2023-05-23T08:12:41;22.70;99.90
19279;DHT22;9773;47.062;15.446;2023-05-23T08:15:07;22.70;99.90
19279;DHT22;9773;47.062;15.446;2023-05-23T08:17:33;22.80;99.90
19279;DHT22;9773;47.062;15.446;2023-05-23T08:19:59;22.90;99.90
19279;DHT22;9773;47.062;15.446;2023-05-23T08:22:25;22.80;99.90
19279;DHT22;9773;47.062;15.446;2023-05-23T08:24:51;22.80;99.90
19279;DHT22;9773;47.062;15.446;2023-05-23T08:27:17;22.90;99.90
19279;DHT22;9773;47.062;15.446;2023-05-23T08:29:43;23.00;99.90
19279;DHT22;9773;47.062;15.446;2023-05-23T08:32:08;23.00;99.90
19279;DHT22;9773;47.062;15.446;2023-05-23T08:34:34;23.20;99.90
19279;DHT22;9773;47.062;15.446;2023-05-23T08:37:00;23.30;99.90
19279;DHT22;9773;47.062;15.446;2023-05-23T08:39:25;23.30;99.90
19279;DHT22;9773;47.062;15.446;2023-05-23T08:41:51;23.40;99.90
19279;DHT22;9773;47.062;15.446;2023-05-23T08:44:17;23.60;99.90
19279;DHT22;9773;47.062;15.446;2023-05-23T08:46:46;23.70;99.90
19279;DHT22;9773;47.062;15.446;2023-05-23T08:49:16;23.70;99.90
19279;DHT22;9773;47.062;15.446;2023-05-23T08:51:42;23.90;99.90
19279;DHT22;9773;47.062;15.446;2023-05-23T08:54:09;23.80;99.90
19279;DHT22;9773;47.062;15.446;2023-05-23T08:56:39;23.70;99.90
19279;DHT22;9773;47.062;15.446;2023-05-23T08:59:08;23.70;99.90
19279;DHT22;9773;47.062;15.446;2023-05-23T09:01:34;23.70;99.90
19279;DHT22;9773;47.062;15.446;2023-05-23T09:04:00;23.80;99.90
19279;DHT22;9773;47.062;15.446;2023-05-23T09:06:29;23.60;99.90
19279;DHT22;9773;47.062;15.446;2023-05-23T09:08:56;24.20;99.90
19279;DHT22;9773;47.062;15.446;2023-05-23T09:11:23;24.30;99.90
19279;DHT22;9773;47.062;15.446;2023-05-23T09:13:49;24.40;99.90
19279;DHT22;9773;47.062;15.446;2023-05-23T09:16:15;24.50;99.90
19279;DHT22;9773;47.062;15.446;2023-05-23T09:18:45;24.50;99.90
19279;DHT22;9773;47.062;15.446;2023-05-23T09:21:11;24.70;99.90
19279;DHT22;9773;47.062;15.446;2023-05-23T09:23:39;24.70;99.90
19279;DHT22;9773;47.062;15.446;2023-05-23T09:26:09;24.70;99.90
19279;DHT22;9773;47.062;15.446;2023-05-23T09:28:37;24.60;99.90
19279;DHT22;9773;47.062;15.446;2023-05-23T09:31:07;24.60;99.90
19279;DHT22;9773;47.062;15.446;2023-05-23T09:33:43;24.80;99.90
19279;DHT22;9773;47.062;15.446;2023-05-23T09:36:09;25.70;99.90
19279;DHT22;9773;47.062;15.446;2023-05-23T09:38:43;25.00;99.90
19279;DHT22;9773;47.062;15.446;2023-05-23T09:41:11;25.10;99.90
19279;DHT22;9773;47.062;15.446;2023-05-23T09:43:57;25.20;99.90
19279;DHT22;9773;47.062;15.446;2023-05-23T09:46:27;25.30;99.90
19279;DHT22;9773;47.062;15.446;2023-05-23T09:48:53;25.50;99.90
19279;DHT22;9773;47.062;15.446;2023-05-23T09:51:21;25.70;99.90
19279;DHT22;9773;47.062;15.446;2023-05-23T09:53:49;25.90;99.70
19279;DHT22;9773;47.062;15.446;2023-05-23T09:56:18;25.90;98.30
19279;DHT22;9773;47.062;15.446;2023-05-23T09:58:48;26.00;98.50
19279;DHT22;9773;47.062;15.446;2023-05-23T10:01:15;25.70;98.90
19279;DHT22;9773;47.062;15.446;2023-05-23T10:03:48;25.60;98.00
19279;DHT22;9773;47.062;15.446;2023-05-23T10:09:12;25.60;97.90
19279;DHT22;9773;47.062;15.446;2023-05-23T10:12:28;25.70;97.70
19279;DHT22;9773;47.062;15.446;2023-05-23T10:14:53;25.80;97.90
19279;DHT22;9773;47.062;15.446;2023-05-23T10:20:10;26.10;97.90
19279;DHT22;9773;47.062;15.446;2023-05-23T10:22:37;26.30;97.80
19279;DHT22;9773;47.062;15.446;2023-05-23T10:25:03;26.50;96.40
19279;DHT22;9773;47.062;15.446;2023-05-23T10:27:39;26.50;96.60
19279;DHT22;9773;47.062;15.446;2023-05-23T10:30:06;26.70;97.50
19279;DHT22;9773;47.062;15.446;2023-05-23T10:32:34;26.80;96.70
19279;DHT22;9773;47.062;15.446;2023-05-23T10:38:08;26.90;95.70
19279;DHT22;9773;47.062;15.446;2023-05-23T10:40:49;26.70;95.60
19279;DHT22;9773;47.062;15.446;2023-05-23T10:43:39;26.30;96.30
19279;DHT22;9773;47.062;15.446;2023-05-23T10:46:08;26.10;96.70
19279;DHT22;9773;47.062;15.446;2023-05-23T10:48:43;26.10;97.50
19279;DHT22;9773;47.062;15.446;2023-05-23T10:51:11;26.10;97.50
19279;DHT22;9773;47.062;15.446;2023-05-23T10:53:42;26.10;96.40
19279;DHT22;9773;47.062;15.446;2023-05-23T10:56:10;26.40;96.60
19279;DHT22;9773;47.062;15.446;2023-05-23T10:58:42;27.60;96.40
19279;DHT22;9773;47.062;15.446;2023-05-23T11:01:12;26.80;95.70
19279;DHT22;9773;47.062;15.446;2023-05-23T11:06:40;27.10;93.40
19279;DHT22;9773;47.062;15.446;2023-05-23T11:09:12;27.20;94.30
19279;DHT22;9773;47.062;15.446;2023-05-23T11:14:29;26.90;94.00
19279;DHT22;9773;47.062;15.446;2023-05-23T11:16:56;26.50;94.40
19279;DHT22;9773;47.062;15.446;2023-05-23T11:19:23;26.30;94.60
19279;DHT22;9773;47.062;15.446;2023-05-23T11:22:08;26.10;94.30
19279;DHT22;9773;47.062;15.446;2023-05-23T11:27:33;25.60;94.40
19279;DHT22;9773;47.062;15.446;2023-05-23T11:30:14;25.70;94.40
19279;DHT22;9773;47.062;15.446;2023-05-23T11:32:41;25.70;93.90
19279;DHT22;9773;47.062;15.446;2023-05-23T11:35:09;25.60;93.80
19279;DHT22;9773;47.062;15.446;2023-05-23T11:37:37;25.60;94.50
19279;DHT22;9773;47.062;15.446;2023-05-23T11:42:54;25.50;94.70
19279;DHT22;9773;47.062;15.446;2023-05-23T11:45:25;25.40;94.50
19279;DHT22;9773;47.062;15.446;2023-05-23T11:47:51;25.30;93.60
19279;DHT22;9773;47.062;15.446;2023-05-23T11:50:18;24.50;96.50
19279;DHT22;9773;47.062;15.446;2023-05-23T11:52:45;22.70;99.90
19279;DHT22;9773;47.062;15.446;2023-05-23T11:55:20;20.80;99.90
19279;DHT22;9773;47.062;15.446;2023-05-23T11:57:47;19.30;99.90
19279;DHT22;9773;47.062;15.446;2023-05-23T12:00:14;18.20;99.90
19279;DHT22;9773;47.062;15.446;2023-05-23T12:02:44;17.60;99.90
19279;DHT22;9773;47.062;15.446;2023-05-23T12:05:11;17.60;99.90
19279;DHT22;9773;47.062;15.446;2023-05-23T12:07:40;17.60;99.90
19279;DHT22;9773;47.062;15.446;2023-05-23T12:10:07;17.20;99.90
19279;DHT22;9773;47.062;15.446;2023-05-23T12:12:33;17.50;99.90
19279;DHT22;9773;47.062;15.446;2023-05-23T12:15:00;16.50;99.90
19279;DHT22;9773;47.062;15.446;2023-05-23T12:17:26;16.50;99.90
19279;DHT22;9773;47.062;15.446;2023-05-23T12:19:52;16.70;99.90
19279;DHT22;9773;47.062;15.446;2023-05-23T12:22:22;16.90;99.90
19279;DHT22;9773;47.062;15.446;2023-05-23T12:24:56;16.90;99.90
19279;DHT22;9773;47.062;15.446;2023-05-23T12:27:29;17.10;99.90
19279;DHT22;9773;47.062;15.446;2023-05-23T12:30:10;17.10;99.90
19279;DHT22;9773;47.062;15.446;2023-05-23T12:32:44;17.10;99.90
19279;DHT22;9773;47.062;15.446;2023-05-23T12:35:14;17.10;99.90
19279;DHT22;9773;47.062;15.446;2023-05-23T12:37:43;16.90;99.90
19279;DHT22;9773;47.062;15.446;2023-05-23T12:40:19;16.90;99.90
19279;DHT22;9773;47.062;15.446;2023-05-23T12:42:51;16.90;99.90
19279;DHT22;9773;47.062;15.446;2023-05-23T12:45:23;16.90;99.90
19279;DHT22;9773;47.062;15.446;2023-05-23T12:47:49;17.00;99.90
19279;DHT22;9773;47.062;15.446;2023-05-23T12:50:15;18.10;99.90
19279;DHT22;9773;47.062;15.446;2023-05-23T12:52:41;17.20;99.90
19279;DHT22;9773;47.062;15.446;2023-05-23T12:55:07;17.20;99.90
19279;DHT22;9773;47.062;15.446;2023-05-23T12:57:34;17.40;99.90
19279;DHT22;9773;47.062;15.446;2023-05-23T13:00:00;17.50;99.90
19279;DHT22;9773;47.062;15.446;2023-05-23T13:02:29;17.40;99.90
19279;DHT22;9773;47.062;15.446;2023-05-23T13:04:54;17.50;99.90
19279;DHT22;9773;47.062;15.446;2023-05-23T13:07:21;17.40;99.90
19279;DHT22;9773;47.062;15.446;2023-05-23T13:09:47;17.40;99.90
19279;DHT22;9773;47.062;15.446;2023-05-23T13:12:13;17.50;99.90
19279;DHT22;9773;47.062;15.446;2023-05-23T13:14:40;17.50;99.90
19279;DHT22;9773;47.062;15.446;2023-05-23T13:17:05;17.30;99.90
19279;DHT22;9773;47.062;15.446;2023-05-23T13:19:31;17.30;99.90
19279;DHT22;9773;47.062;15.446;2023-05-23T13:21:57;17.40;99.90
19279;DHT22;9773;47.062;15.446;2023-05-23T13:24:23;17.40;99.90
19279;DHT22;9773;47.062;15.446;2023-05-23T13:26:49;17.40;99.90
19279;DHT22;9773;47.062;15.446;2023-05-23T13:29:15;17.40;99.90
19279;DHT22;9773;47.062;15.446;2023-05-23T13:31:40;18.40;99.90
19279;DHT22;9773;47.062;15.446;2023-05-23T13:34:06;17.50;99.90
19279;DHT22;9773;47.062;15.446;2023-05-23T13:36:32;17.50;99.90
19279;DHT22;9773;47.062;15.446;2023-05-23T13:39:00;17.50;99.90
19279;DHT22;9773;47.062;15.446;2023-05-23T13:41:26;17.40;99.90
19279;DHT22;9773;47.062;15.446;2023-05-23T13:43:51;17.30;99.90
19279;DHT22;9773;47.062;15.446;2023-05-23T13:46:17;17.40;99.90
19279;DHT22;9773;47.062;15.446;2023-05-23T13:48:43;17.20;99.90
19279;DHT22;9773;47.062;15.446;2023-05-23T13:51:09;17.20;99.90
19279;DHT22;9773;47.062;15.446;2023-05-23T13:53:35;17.30;99.90
19279;DHT22;9773;47.062;15.446;2023-05-23T13:56:01;17.40;99.90
19279;DHT22;9773;47.062;15.446;2023-05-23T13:58:27;17.60;99.90
19279;DHT22;9773;47.062;15.446;2023-05-23T14:00:53;17.70;99.90
19279;DHT22;9773;47.062;15.446;2023-05-23T14:03:20;17.70;99.90
19279;DHT22;9773;47.062;15.446;2023-05-23T14:05:45;18.70;99.90
19279;DHT22;9773;47.062;15.446;2023-05-23T14:08:11;17.80;99.90
19279;DHT22;9773;47.062;15.446;2023-05-23T14:10:39;18.00;99.90
19279;DHT22;9773;47.062;15.446;2023-05-23T14:13:06;17.90;99.90
19279;DHT22;9773;47.062;15.446;2023-05-23T14:15:33;18.10;99.90
19279;DHT22;9773;47.062;15.446;2023-05-23T14:17:58;18.00;99.90
19279;DHT22;9773;47.062;15.446;2023-05-23T14:20:24;18.20;99.90
19279;DHT22;9773;47.062;15.446;2023-05-23T14:22:50;18.30;99.90
19279;DHT22;9773;47.062;15.446;2023-05-23T14:25:17;18.50;99.90
19279;DHT22;9773;47.062;15.446;2023-05-23T14:27:43;18.80;99.90
19279;DHT22;9773;47.062;15.446;2023-05-23T14:30:09;18.90;99.90
19279;DHT22;9773;47.062;15.446;2023-05-23T14:32:35;18.90;99.90
19279;DHT22;9773;47.062;15.446;2023-05-23T14:35:08;19.10;99.90
19279;DHT22;9773;47.062;15.446;2023-05-23T14:37:34;19.20;99.90
19279;DHT22;9773;47.062;15.446;2023-05-23T14:40:01;19.50;99.90
19279;DHT22;9773;47.062;15.446;2023-05-23T14:42:27;19.50;99.90
19279;DHT22;9773;47.062;15.446;2023-05-23T14:44:53;19.50;99.90
19279;DHT22;9773;47.062;15.446;2023-05-23T14:47:19;19.70;99.90
19279;DHT22;9773;47.062;15.446;2023-05-23T14:49:45;19.70;99.90
19279;DHT22;9773;47.062;15.446;2023-05-23T14:52:11;19.80;99.90
19279;DHT22;9773;47.062;15.446;2023-05-23T14:54:38;19.90;99.90
19279;DHT22;9773;47.062;15.446;2023-05-23T14:57:08;20.00;99.90
19279;DHT22;9773;47.062;15.446;2023-05-23T14:59:34;20.10;99.90
19279;DHT22;9773;47.062;15.446;2023-05-23T15:02:02;20.10;99.90
19279;DHT22;9773;47.062;15.446;2023-05-23T15:04:27;19.80;99.90
19279;DHT22;9773;47.062;15.446;2023-05-23T15:06:53;19.70;99.90
19279;DHT22;9773;47.062;15.446;2023-05-23T15:09:19;19.60;99.90
19279;DHT22;9773;47.062;15.446;2023-05-23T15:11:45;19.60;99.90
19279;DHT22;9773;47.062;15.446;2023-05-23T15:14:14;19.70;99.90
19279;DHT22;9773;47.062;15.446;2023-05-23T15:16:40;19.40;99.90
19279;DHT22;9773;47.062;15.446;2023-05-23T15:19:09;19.50;99.90
19279;DHT22;9773;47.062;15.446;2023-05-23T15:21:35;19.40;99.90
19279;DHT22;9773;47.062;15.446;2023-05-23T15:24:01;19.10;99.90
19279;DHT22;9773;47.062;15.446;2023-05-23T15:26:27;19.70;99.90
19279;DHT22;9773;47.062;15.446;2023-05-23T15:28:53;19.40;99.90
19279;DHT22;9773;47.062;15.446;2023-05-23T15:31:19;19.50;99.90
19279;DHT22;9773;47.062;15.446;2023-05-23T15:33:45;19.30;99.90
19279;DHT22;9773;47.062;15.446;2023-05-23T15:36:12;21.00;99.90
19279;DHT22;9773;47.062;15.446;2023-05-23T15:38:38;19.40;99.90
19279;DHT22;9773;47.062;15.446;2023-05-23T15:41:04;19.40;99.90
19279;DHT22;9773;47.062;15.446;2023-05-23T15:43:31;19.40;99.90
19279;DHT22;9773;47.062;15.446;2023-05-23T15:45:59;19.30;99.90
19279;DHT22;9773;47.062;15.446;2023-05-23T15:48:26;19.20;99.90
19279;DHT22;9773;47.062;15.446;2023-05-23T15:50:53;19.00;99.90
19279;DHT22;9773;47.062;15.446;2023-05-23T15:53:18;19.00;99.90
19279;DHT22;9773;47.062;15.446;2023-05-23T15:55:45;19.00;99.90
19279;DHT22;9773;47.062;15.446;2023-05-23T15:58:11;18.90;99.90
19279;DHT22;9773;47.062;15.446;2023-05-23T16:00:37;18.80;99.90
19279;DHT22;9773;47.062;15.446;2023-05-23T16:03:03;19.50;99.90